Birgit G. — V2QD5 — position and weather

sailwx.info

Track history (hours):
 
Tides and Currents Weather Stations Pressure Air Temp Water Temp Dewpoint Dewpoint Depression Visibility Wind Speed Wind Dir Waves Ship Positions

Birgit G.

Last reported at 2017-Oct-16 14:38 UTC. Time now 2017-Oct-17 10:10 UTC.
Position N 51°06' E 004°19'.

Length 89 m; draft 5.6 m.

Type: Ship. MMSI: 305502000.

Date/timePositionNaut miles runAvg speedWind from/ knotsBaromVisibWave heightAir tempDewpointWater temp
2017-Oct-16 14:38N 51°06' E 004°19'0 0.3
2017-Oct-16 14:30N 51°06' E 004°19'1 1.3
2017-Oct-16 13:30N 51°07' E 004°18'1 2.9
2017-Oct-16 13:00N 51°08' E 004°20'4 8.2
2017-Oct-16 12:30N 51°12' E 004°22'2 4.5
2017-Oct-16 12:00N 51°14' E 004°21'4 8.1
2017-Oct-16 11:30N 51°18' E 004°18'5 9.7
2017-Oct-16 11:00N 51°22' E 004°13'4 8.9
2017-Oct-16 10:30N 51°22' E 004°06'611.3
2017-Oct-16 10:00N 51°26' E 003°59'612.0
2017-Oct-16 09:30N 51°21' E 003°54'510.9
2017-Oct-16 09:00N 51°22' E 003°45'510.9
2017-Oct-16 08:30N 51°25' E 003°38'510.1
2017-Oct-16 08:00N 51°28' E 003°31'510.9
2017-Oct-16 07:30N 51°32' E 003°25'510.6
2017-Oct-16 07:00N 51°37' E 003°21'4 8.0
2017-Oct-16 06:30N 51°40' E 003°17'4 8.0
2017-Oct-16 05:59N 51°43' E 003°15'4 7.5
2017-Oct-16 05:30N 51°47' E 003°18'1 1.2
2017-Oct-16 04:46N 51°47' E 003°19'0 0.1
2017-Oct-16 04:25N 51°47' E 003°19'0 0.0
2017-Oct-16 03:43N 51°47' E 003°19'0 0.1
2017-Oct-16 03:28N 51°47' E 003°19'0 0.1
2017-Oct-16 02:55N 51°47' E 003°19'0 0.1
2017-Oct-16 02:25N 51°47' E 003°19'0 0.0
2017-Oct-16 01:58N 51°47' E 003°19'0 0.0
2017-Oct-16 01:28N 51°47' E 003°19'0 0.0
2017-Oct-16 00:55N 51°47' E 003°19'0 0.0
2017-Oct-16 00:28N 51°47' E 003°19'0 0.0
2017-Oct-15 23:49N 51°47' E 003°19'0 0.0
2017-Oct-15 23:16N 51°47' E 003°19'0 0.1
2017-Oct-15 22:58N 51°47' E 003°19'0 0.0
2017-Oct-15 21:37N 51°47' E 003°19'0 0.0
2017-Oct-15 21:22N 51°47' E 003°19'0 0.0
2017-Oct-15 20:58N 51°47' E 003°19'1 2.9
2017-Oct-15 20:28N 51°49' E 003°19'5 9.8
2017-Oct-15 20:00N 51°53' E 003°19'510.6
2017-Oct-15 19:30N 51°58' E 003°20'510.8
2017-Oct-15 19:00N 52°04' E 003°21'510.9
2017-Oct-15 18:30N 52°09' E 003°22'511.0
2017-Oct-15 18:01N 52°15' E 003°23'611.1
2017-Oct-15 17:29N 52°20' E 003°25'511.0
2017-Oct-15 17:00N 52°25' E 003°28'510.9
2017-Oct-15 16:30N 52°31' E 003°30'510.5
2017-Oct-15 16:00N 52°36' E 003°32'5 9.7
2017-Oct-15 15:30N 52°40' E 003°36'5 9.6
2017-Oct-15 15:00N 52°44' E 003°41'9 9.1
2017-Oct-15 14:00N 52°51' E 003°50'4 8.8
2017-Oct-15 13:30N 52°54' E 003°55'4 8.7
2017-Oct-15 13:00N 52°57' E 004°01'4 8.6
2017-Oct-15 12:30N 52°60' E 004°06'4 8.5
2017-Oct-15 12:00N 53°03' E 004°11'4 8.5
2017-Oct-15 11:30N 53°06' E 004°16'4 8.7
2017-Oct-15 11:00N 53°09' E 004°20'5 9.0
2017-Oct-15 10:30N 53°13' E 004°24'5 9.4
2017-Oct-15 10:00N 53°17' E 004°28'5 9.8
2017-Oct-15 09:30N 53°22' E 004°30'610.1
2017-Oct-15 08:57N 53°27' E 004°33'510.2
2017-Oct-15 08:30N 53°32' E 004°36'510.1
2017-Oct-15 08:00N 53°37' E 004°38'33 9.7
2017-Oct-15 04:37N 54°07' E 004°58'1 9.3
2017-Oct-15 04:30N 54°08' E 004°59'5 9.4
2017-Oct-15 03:58N 54°13' E 005°00'246 8.6
2017-Oct-13 23:24N 58°19' E 004°51'3 7.9
2017-Oct-13 22:58N 58°22' E 004°50'4 7.8
2017-Oct-13 22:30N 58°26' E 004°50'4 8.0
2017-Oct-13 22:00N 58°30' E 004°50'4 8.0
2017-Oct-13 21:30N 58°34' E 004°49'4 7.9
2017-Oct-13 21:00N 58°38' E 004°48'4 8.3
2017-Oct-13 20:30N 58°42' E 004°48'4 8.3
2017-Oct-13 20:00N 58°46' E 004°46'4 8.2
2017-Oct-13 19:30N 58°50' E 004°46'4 8.3
2017-Oct-13 19:00N 58°54' E 004°45'4 8.0
2017-Oct-13 18:30N 58°58' E 004°44'4 8.1
2017-Oct-13 18:00N 59°02' E 004°44'4 7.9
2017-Oct-13 17:27N 59°06' E 004°43'19 6.5
2017-Oct-13 14:27N 59°26' E 004°44'2 5.3
2017-Oct-13 14:00N 59°28' E 004°45'2 4.7
2017-Oct-13 13:30N 59°31' E 004°46'2 4.2
2017-Oct-13 13:00N 59°33' E 004°47'2 4.0
2017-Oct-13 12:30N 59°35' E 004°47'2 3.8
2017-Oct-13 12:00N 59°36' E 004°47'2 3.5
2017-Oct-13 11:30N 59°38' E 004°47'2 3.6
2017-Oct-13 11:00N 59°40' E 004°48'2 3.9
2017-Oct-13 10:30N 59°42' E 004°48'2 4.5
2017-Oct-13 10:00N 59°44' E 004°49'2 4.7
2017-Oct-13 09:30N 59°46' E 004°50'3 5.0
2017-Oct-13 09:00N 59°49' E 004°51'3 5.3
2017-Oct-13 08:30N 59°52' E 004°52'3 5.6
2017-Oct-13 08:00N 59°54' E 004°53'3 5.6
2017-Oct-13 07:30N 59°57' E 004°54'3 5.7
2017-Oct-13 07:00N 59°60' E 004°55'3 6.1
2017-Oct-13 06:30N 60°03' E 004°56'3 6.1
2017-Oct-13 05:59N 60°06' E 004°56'3 6.2
2017-Oct-13 05:30N 60°09' E 004°60'5 9.4
2017-Oct-13 05:00N 60°10' E 005°09'4 8.6
2017-Oct-13 04:30N 60°14' E 005°09'4 8.0
2017-Oct-13 04:00N 60°18' E 005°08'3 6.2
2017-Oct-13 03:30N 60°21' E 005°10'3 5.6
2017-Oct-13 03:00N 60°24' E 005°13'1 1.1
2017-Oct-13 02:30N 60°24' E 005°14'0 0.0
2017-Oct-13 02:00N 60°24' E 005°14'0 0.0
2017-Oct-13 01:30N 60°24' E 005°14'0 0.0
2017-Oct-13 01:00N 60°24' E 005°14'0 0.0
2017-Oct-13 00:30N 60°24' E 005°14'1 2.7
2017-Oct-13 00:00N 60°23' E 005°12'4 8.8
2017-Oct-12 23:30N 60°25' E 005°03'5 9.4
2017-Oct-12 23:00N 60°29' E 004°59'5 9.6
2017-Oct-12 22:30N 60°34' E 004°55'5 9.4
2017-Oct-12 21:58N 60°38' E 004°51'4 9.3
2017-Oct-12 21:30N 60°42' E 004°47'4 8.1
2017-Oct-12 20:59N 60°45' E 004°41'4 8.1
2017-Oct-12 20:30N 60°48' E 004°35'4 8.0
2017-Oct-12 20:00N 60°51' E 004°29'4 8.0
2017-Oct-12 19:29N 60°55' E 004°27'4 8.2
2017-Oct-12 19:00N 60°58' E 004°25'4 8.6
2017-Oct-12 18:30N 61°03' E 004°25'4 8.3
2017-Oct-12 18:00N 61°07' E 004°25'4 8.6
2017-Oct-12 17:29N 61°11' E 004°26'4 8.7
2017-Oct-12 17:00N 61°15' E 004°27'6 9.1
2017-Oct-12 16:24N 61°21' E 004°26'3 7.9
2017-Oct-12 16:00N 61°24' E 004°26'4 8.4
2017-Oct-12 15:30N 61°28' E 004°27'4 8.9
2017-Oct-12 15:00N 61°33' E 004°28'4 8.6
2017-Oct-12 14:30N 61°37' E 004°29'4 8.5
2017-Oct-12 14:00N 61°41' E 004°31'4 8.0
2017-Oct-12 13:30N 61°45' E 004°35'4 8.5
2017-Oct-12 13:00N 61°49' E 004°38'4 8.4
2017-Oct-12 12:30N 61°52' E 004°42'4 8.1
2017-Oct-12 12:00N 61°56' E 004°45'4 8.4
2017-Oct-12 11:30N 62°00' E 004°48'4 7.7
2017-Oct-12 11:00N 62°04' E 004°51'4 7.9
2017-Oct-12 10:30N 62°07' E 004°55'4 7.9
2017-Oct-12 10:00N 62°11' E 004°59'4 8.2
2017-Oct-12 09:30N 62°14' E 005°04'4 9.0
2017-Oct-12 08:59N 62°18' E 005°10'4 9.0
2017-Oct-12 08:30N 62°21' E 005°15'4 8.8
2017-Oct-12 08:00N 62°25' E 005°20'4 8.5
2017-Oct-12 07:30N 62°29' E 005°26'4 8.8
2017-Oct-12 07:00N 62°32' E 005°31'4 8.9
2017-Oct-12 06:30N 62°36' E 005°36'4 8.8
2017-Oct-12 06:00N 62°39' E 005°42'4 8.0
2017-Oct-12 05:30N 62°42' E 005°48'4 7.5
2017-Oct-12 05:00N 62°45' E 005°53'4 7.8
2017-Oct-12 04:30N 62°49' E 005°58'4 7.4
2017-Oct-12 04:00N 62°51' E 006°03'4 7.4
2017-Oct-12 03:30N 62°54' E 006°09'4 8.0
2017-Oct-12 03:00N 62°57' E 006°15'4 8.4
2017-Oct-12 02:30N 62°59' E 006°22'4 8.7
2017-Oct-12 02:00N 63°02' E 006°29'4 8.9
2017-Oct-12 01:30N 63°05' E 006°36'4 8.7
2017-Oct-12 01:00N 63°09' E 006°43'4 8.2
2017-Oct-12 00:30N 63°12' E 006°49'4 7.8
2017-Oct-12 00:00N 63°15' E 006°54'4 7.4
2017-Oct-11 23:30N 63°17' E 006°60'4 7.3
2017-Oct-11 23:00N 63°20' E 007°06'4 7.3
2017-Oct-11 22:30N 63°23' E 007°11'4 7.4
2017-Oct-11 22:00N 63°25' E 007°17'4 7.6
2017-Oct-11 21:30N 63°28' E 007°22'4 7.9
2017-Oct-11 21:00N 63°32' E 007°28'4 7.6
2017-Oct-11 20:30N 63°35' E 007°32'4 7.2
2017-Oct-11 20:00N 63°38' E 007°36'4 7.1
2017-Oct-11 19:29N 63°41' E 007°39'4 7.3
2017-Oct-11 19:00N 63°45' E 007°42'4 7.2
2017-Oct-11 18:30N 63°48' E 007°45'4 7.3
2017-Oct-11 18:00N 63°51' E 007°47'260 7.8
2017-Oct-10 08:34N 67°46' E 012°17'1 8.4
2017-Oct-10 08:30N 67°47' E 012°18'4 8.4
2017-Oct-10 08:00N 67°50' E 012°24'4 8.1
2017-Oct-10 07:30N 67°53' E 012°31'4 8.3
2017-Oct-10 07:00N 67°57' E 012°36'4 8.1
2017-Oct-10 06:30N 68°01' E 012°40'4 8.1
2017-Oct-10 06:00N 68°04' E 012°45'4 8.6
2017-Oct-10 05:30N 68°08' E 012°52'4 8.8
2017-Oct-10 05:00N 68°12' E 012°59'4 8.5
2017-Oct-10 04:30N 68°15' E 013°06'4 8.2
2017-Oct-10 04:00N 68°18' E 013°12'4 8.1
2017-Oct-10 03:30N 68°22' E 013°18'4 8.2
2017-Oct-10 03:00N 68°25' E 013°24'4 8.2
2017-Oct-10 02:30N 68°28' E 013°31'4 8.1
2017-Oct-10 02:00N 68°32' E 013°37'4 8.0
2017-Oct-10 01:30N 68°35' E 013°44'4 8.2
2017-Oct-10 00:59N 68°38' E 013°50'4 8.1
2017-Oct-10 00:30N 68°41' E 013°58'4 7.9
2017-Oct-09 23:59N 68°44' E 014°04'4 8.1
2017-Oct-09 23:30N 68°48' E 014°10'4 8.0
2017-Oct-09 23:00N 68°51' E 014°17'4 7.6
2017-Oct-09 22:30N 68°54' E 014°24'4 7.7
2017-Oct-09 22:00N 68°57' E 014°31'4 8.2
2017-Oct-09 21:30N 68°60' E 014°38'4 8.2
2017-Oct-09 21:00N 69°03' E 014°46'4 8.0
2017-Oct-09 20:30N 69°06' E 014°53'4 7.8
2017-Oct-09 20:00N 69°09' E 015°00'4 7.6
2017-Oct-09 19:30N 69°12' E 015°08'4 7.4
2017-Oct-09 19:00N 69°14' E 015°15'4 7.7
2017-Oct-09 18:30N 69°16' E 015°24'4 7.8
2017-Oct-09 18:00N 69°19' E 015°33'4 8.0
2017-Oct-09 17:30N 69°22' E 015°41'4 7.9
2017-Oct-09 17:00N 69°24' E 015°50'4 7.2
2017-Oct-09 16:30N 69°26' E 015°58'4 7.8
2017-Oct-09 16:00N 69°29' E 016°07'4 7.9
2017-Oct-09 15:30N 69°31' E 016°15'4 8.0
2017-Oct-09 15:00N 69°34' E 016°25'4 8.2
2017-Oct-09 14:30N 69°36' E 016°34'4 8.3
2017-Oct-09 14:00N 69°39' E 016°43'4 8.1
2017-Oct-09 13:30N 69°41' E 016°53'4 8.7
2017-Oct-09 13:00N 69°44' E 017°02'5 8.9
2017-Oct-09 12:30N 69°47' E 017°12'5 9.3
2017-Oct-09 12:00N 69°50' E 017°22'5 9.0
2017-Oct-09 11:30N 69°53' E 017°32'4 8.6
2017-Oct-09 11:00N 69°56' E 017°39'4 8.1
2017-Oct-09 10:30N 69°60' E 017°47'4 7.9
2017-Oct-09 10:00N 70°03' E 017°54'4 8.1
2017-Oct-09 09:30N 70°06' E 018°03'4 8.1
2017-Oct-09 09:00N 70°08' E 018°12'4 7.9
2017-Oct-09 08:30N 70°11' E 018°21'4 8.2
2017-Oct-09 08:00N 70°13' E 018°30'5 9.2
2017-Oct-09 07:30N 70°16' E 018°41'5 9.6
2017-Oct-09 07:00N 70°19' E 018°53'5 9.4
2017-Oct-09 06:30N 70°21' E 019°06'5 9.4
2017-Oct-09 05:59N 70°22' E 019°19'4 9.0
2017-Oct-09 05:30N 70°23' E 019°32'4 8.4
2017-Oct-09 05:00N 70°22' E 019°44'5 9.2
2017-Oct-09 04:30N 70°19' E 019°53'4 8.6
2017-Oct-09 04:00N 70°15' E 019°59'5 9.4
2017-Oct-09 03:30N 70°11' E 020°05'5 9.0
2017-Oct-09 03:00N 70°07' E 020°14'5 9.2
2017-Oct-09 02:30N 70°11' E 020°23'5 9.3
2017-Oct-09 02:00N 70°14' E 020°33'5 9.6
2017-Oct-09 01:30N 70°17' E 020°44'5 9.6
2017-Oct-09 01:00N 70°19' E 020°57'5 9.6
2017-Oct-09 00:30N 70°21' E 021°09'5 9.9
2017-Oct-09 00:00N 70°23' E 021°23'5 9.7
2017-Oct-08 23:30N 70°24' E 021°37'5 9.9
2017-Oct-08 23:00N 70°23' E 021°51'510.1
2017-Oct-08 22:30N 70°20' E 022°05'510.3
2017-Oct-08 22:00N 70°18' E 022°18'510.2
2017-Oct-08 21:29N 70°16' E 022°32'510.2
2017-Oct-08 21:00N 70°14' E 022°46'5 9.8
2017-Oct-08 20:30N 70°12' E 022°59'510.4
2017-Oct-08 20:00N 70°07' E 023°04'510.5
2017-Oct-08 19:29N 70°02' E 023°09'5 9.1
2017-Oct-08 19:00N 69°58' E 023°13'0 0.1
2017-Oct-08 18:29N 69°58' E 023°13'0 0.0
2017-Oct-08 17:59N 69°58' E 023°13'0 0.0
2017-Oct-08 17:29N 69°58' E 023°13'0 0.0
2017-Oct-08 16:59N 69°58' E 023°13'0 0.0
2017-Oct-08 16:29N 69°58' E 023°13'0 0.0
2017-Oct-08 15:59N 69°58' E 023°13'0 0.0
2017-Oct-08 15:29N 69°58' E 023°13'0 0.0
2017-Oct-08 14:59N 69°58' E 023°13'0 0.0
2017-Oct-08 14:29N 69°58' E 023°13'0 0.0
2017-Oct-08 13:59N 69°58' E 023°13'0 0.0
2017-Oct-08 13:29N 69°58' E 023°13'0 0.0
2017-Oct-08 12:59N 69°58' E 023°13'0 0.0
2017-Oct-08 12:29N 69°58' E 023°13'0 0.0
2017-Oct-08 11:59N 69°58' E 023°13'0 0.0
2017-Oct-08 11:29N 69°58' E 023°13'0 0.0
2017-Oct-08 10:59N 69°58' E 023°13'0 0.0
2017-Oct-08 10:29N 69°58' E 023°13'0 0.0
2017-Oct-08 09:59N 69°58' E 023°13'0 0.0
2017-Oct-08 09:29N 69°58' E 023°13'0 0.0
2017-Oct-08 08:59N 69°58' E 023°13'0 0.0
2017-Oct-08 08:29N 69°58' E 023°13'0 0.0
2017-Oct-08 07:59N 69°58' E 023°13'0 0.0
2017-Oct-08 07:29N 69°58' E 023°13'0 0.0
2017-Oct-08 06:59N 69°58' E 023°13'0 0.0
2017-Oct-08 06:29N 69°58' E 023°13'0 0.0
2017-Oct-08 05:59N 69°58' E 023°13'0 0.0
2017-Oct-08 05:29N 69°58' E 023°13'0 0.0
2017-Oct-08 04:59N 69°58' E 023°13'0 0.0
2017-Oct-08 04:29N 69°58' E 023°13'0 0.0
2017-Oct-08 03:59N 69°58' E 023°13'0 0.0
2017-Oct-08 03:29N 69°58' E 023°13'0 0.0
2017-Oct-08 02:59N 69°58' E 023°13'0 0.0
2017-Oct-08 02:29N 69°58' E 023°13'0 0.0
2017-Oct-08 01:59N 69°58' E 023°13'0 0.0
2017-Oct-08 01:29N 69°58' E 023°13'0 0.0
2017-Oct-08 00:59N 69°58' E 023°13'0 0.0
2017-Oct-08 00:29N 69°58' E 023°13'0 0.0
2017-Oct-08 00:00N 69°58' E 023°13'1 1.7
2017-Oct-07 23:30N 69°58' E 023°12'510.8
2017-Oct-07 23:00N 70°04' E 023°07'611.4
2017-Oct-07 22:30N 70°09' E 023°02'510.6
2017-Oct-07 22:01N 70°13' E 022°53'611.4
2017-Oct-07 21:30N 70°15' E 022°37'611.6
2017-Oct-07 21:00N 70°18' E 022°21'611.3
2017-Oct-07 20:30N 70°20' E 022°06'511.1
2017-Oct-07 20:00N 70°22' E 021°51'510.2
2017-Oct-07 19:30N 70°24' E 021°37'510.2
2017-Oct-07 19:00N 70°23' E 021°22'510.4
2017-Oct-07 18:29N 70°21' E 021°08'510.4
2017-Oct-07 18:00N 70°19' E 020°54'510.4
2017-Oct-07 17:30N 70°16' E 020°41'510.4
2017-Oct-07 17:00N 70°13' E 020°28'510.4
2017-Oct-07 16:30N 70°09' E 020°19'4 7.7
2017-Oct-07 16:00N 70°06' E 020°13'1 1.2
2017-Oct-07 15:30N 70°06' E 020°11'1 2.5
2017-Oct-07 15:00N 70°07' E 020°10'1 1.0
2017-Oct-07 14:30N 70°08' E 020°11'0 0.4
2017-Oct-07 14:00N 70°08' E 020°11'2 4.2
2017-Oct-07 13:29N 70°10' E 020°08'0 0.8
2017-Oct-07 13:00N 70°10' E 020°08'5 9.2
2017-Oct-07 12:30N 70°14' E 020°02'510.6
2017-Oct-07 12:00N 70°19' E 019°54'5 9.9
2017-Oct-07 11:30N 70°22' E 019°43'510.0
2017-Oct-07 11:00N 70°24' E 019°29'5 9.2
2017-Oct-07 10:30N 70°23' E 019°16'510.3
2017-Oct-07 10:00N 70°20' E 019°02'510.2
2017-Oct-07 09:30N 70°18' E 018°49'510.3
2017-Oct-07 09:00N 70°15' E 018°36'510.3
2017-Oct-07 08:30N 70°12' E 018°25'510.2
2017-Oct-07 08:00N 70°08' E 018°14'510.4
2017-Oct-07 07:30N 70°05' E 018°03'5 9.9
2017-Oct-07 07:00N 70°02' E 017°51'5 9.9
2017-Oct-07 06:30N 69°58' E 017°41'510.0
2017-Oct-07 05:59N 69°55' E 017°30'5 9.9
2017-Oct-07 05:30N 69°51' E 017°21'5 9.9
2017-Oct-07 05:00N 69°47' E 017°11'510.1
2017-Oct-07 04:30N 69°44' E 017°01'511.0
2017-Oct-07 04:00N 69°40' E 016°51'510.6
2017-Oct-07 03:30N 69°36' E 016°38'510.5
2017-Oct-07 02:59N 69°33' E 016°26'510.7
2017-Oct-07 02:30N 69°30' E 016°14'611.1
2017-Oct-07 02:00N 69°27' E 016°01'611.7
2017-Oct-07 01:30N 69°24' E 015°47'611.6
2017-Oct-07 01:00N 69°21' E 015°33'612.0
2017-Oct-07 00:29N 69°17' E 015°19'611.6
2017-Oct-06 23:59N 69°14' E 015°05'510.9
2017-Oct-06 23:30N 69°11' E 014°53'510.6
2017-Oct-06 23:00N 69°06' E 014°47'510.8
2017-Oct-06 22:29N 69°01' E 014°42'510.8
2017-Oct-06 22:00N 68°56' E 014°36'510.3
2017-Oct-06 21:30N 68°52' E 014°26'611.1
2017-Oct-06 21:00N 68°49' E 014°14'510.1
2017-Oct-06 20:30N 68°44' E 014°11'510.6
2017-Oct-06 20:00N 68°41' E 013°60'510.5
2017-Oct-06 19:30N 68°36' E 013°56'511.0
2017-Oct-06 19:00N 68°32' E 013°44'510.8
2017-Oct-06 18:30N 68°28' E 013°34'510.3
2017-Oct-06 18:00N 68°24' E 013°29'5 9.1
2017-Oct-06 17:30N 68°20' E 013°22'510.2
2017-Oct-06 17:00N 68°17' E 013°10'5 9.5
2017-Oct-06 16:30N 68°13' E 013°05'5 9.9
2017-Oct-06 16:00N 68°09' E 012°56'510.7
2017-Oct-06 15:30N 68°05' E 012°48'510.4
2017-Oct-06 15:00N 68°00' E 012°41'  
Track history (hours):
 
Tides and Currents Weather Stations Pressure Air Temp Water Temp Dewpoint Dewpoint Depression Visibility Wind Speed Wind Dir Waves Ship Positions

Birgit G.

Last reported at 2017-Oct-16 14:38 UTC. Time now 2017-Oct-17 10:10 UTC.
Position N 51°06' E 004°19'.

Length 89 m; draft 5.6 m.

Type: Ship. MMSI: 305502000.

Date/timePositionNaut miles runAvg speedWind from/ knotsBaromVisibWave heightAir tempDewpointWater temp
2017-Oct-16 14:38N 51°06' E 004°19'0 0.3
2017-Oct-16 14:30N 51°06' E 004°19'1 1.3
2017-Oct-16 13:30N 51°07' E 004°18'1 2.9
2017-Oct-16 13:00N 51°08' E 004°20'4 8.2
2017-Oct-16 12:30N 51°12' E 004°22'2 4.5
2017-Oct-16 12:00N 51°14' E 004°21'4 8.1
2017-Oct-16 11:30N 51°18' E 004°18'5 9.7
2017-Oct-16 11:00N 51°22' E 004°13'4 8.9
2017-Oct-16 10:30N 51°22' E 004°06'611.3
2017-Oct-16 10:00N 51°26' E 003°59'612.0
2017-Oct-16 09:30N 51°21' E 003°54'510.9
2017-Oct-16 09:00N 51°22' E 003°45'510.9
2017-Oct-16 08:30N 51°25' E 003°38'510.1
2017-Oct-16 08:00N 51°28' E 003°31'510.9
2017-Oct-16 07:30N 51°32' E 003°25'510.6
2017-Oct-16 07:00N 51°37' E 003°21'4 8.0
2017-Oct-16 06:30N 51°40' E 003°17'4 8.0
2017-Oct-16 05:59N 51°43' E 003°15'4 7.5
2017-Oct-16 05:30N 51°47' E 003°18'1 1.2
2017-Oct-16 04:46N 51°47' E 003°19'0 0.1
2017-Oct-16 04:25N 51°47' E 003°19'0 0.0
2017-Oct-16 03:43N 51°47' E 003°19'0 0.1
2017-Oct-16 03:28N 51°47' E 003°19'0 0.1
2017-Oct-16 02:55N 51°47' E 003°19'0 0.1
2017-Oct-16 02:25N 51°47' E 003°19'0 0.0
2017-Oct-16 01:58N 51°47' E 003°19'0 0.0
2017-Oct-16 01:28N 51°47' E 003°19'0 0.0
2017-Oct-16 00:55N 51°47' E 003°19'0 0.0
2017-Oct-16 00:28N 51°47' E 003°19'0 0.0
2017-Oct-15 23:49N 51°47' E 003°19'0 0.0
2017-Oct-15 23:16N 51°47' E 003°19'0 0.1
2017-Oct-15 22:58N 51°47' E 003°19'0 0.0
2017-Oct-15 21:37N 51°47' E 003°19'0 0.0
2017-Oct-15 21:22N 51°47' E 003°19'0 0.0
2017-Oct-15 20:58N 51°47' E 003°19'1 2.9
2017-Oct-15 20:28N 51°49' E 003°19'5 9.8
2017-Oct-15 20:00N 51°53' E 003°19'510.6
2017-Oct-15 19:30N 51°58' E 003°20'510.8
2017-Oct-15 19:00N 52°04' E 003°21'510.9
2017-Oct-15 18:30N 52°09' E 003°22'511.0
2017-Oct-15 18:01N 52°15' E 003°23'611.1
2017-Oct-15 17:29N 52°20' E 003°25'511.0
2017-Oct-15 17:00N 52°25' E 003°28'510.9
2017-Oct-15 16:30N 52°31' E 003°30'510.5
2017-Oct-15 16:00N 52°36' E 003°32'5 9.7
2017-Oct-15 15:30N 52°40' E 003°36'5 9.6
2017-Oct-15 15:00N 52°44' E 003°41'9 9.1
2017-Oct-15 14:00N 52°51' E 003°50'4 8.8
2017-Oct-15 13:30N 52°54' E 003°55'4 8.7
2017-Oct-15 13:00N 52°57' E 004°01'4 8.6
2017-Oct-15 12:30N 52°60' E 004°06'4 8.5
2017-Oct-15 12:00N 53°03' E 004°11'4 8.5
2017-Oct-15 11:30N 53°06' E 004°16'4 8.7
2017-Oct-15 11:00N 53°09' E 004°20'5 9.0
2017-Oct-15 10:30N 53°13' E 004°24'5 9.4
2017-Oct-15 10:00N 53°17' E 004°28'5 9.8
2017-Oct-15 09:30N 53°22' E 004°30'610.1
2017-Oct-15 08:57N 53°27' E 004°33'510.2
2017-Oct-15 08:30N 53°32' E 004°36'510.1
2017-Oct-15 08:00N 53°37' E 004°38'33 9.7
2017-Oct-15 04:37N 54°07' E 004°58'1 9.3
2017-Oct-15 04:30N 54°08' E 004°59'5 9.4
2017-Oct-15 03:58N 54°13' E 005°00'246 8.6
2017-Oct-13 23:24N 58°19' E 004°51'3 7.9
2017-Oct-13 22:58N 58°22' E 004°50'4 7.8
2017-Oct-13 22:30N 58°26' E 004°50'4 8.0
2017-Oct-13 22:00N 58°30' E 004°50'4 8.0
2017-Oct-13 21:30N 58°34' E 004°49'4 7.9
2017-Oct-13 21:00N 58°38' E 004°48'4 8.3
2017-Oct-13 20:30N 58°42' E 004°48'4 8.3
2017-Oct-13 20:00N 58°46' E 004°46'4 8.2
2017-Oct-13 19:30N 58°50' E 004°46'4 8.3
2017-Oct-13 19:00N 58°54' E 004°45'4 8.0
2017-Oct-13 18:30N 58°58' E 004°44'4 8.1
2017-Oct-13 18:00N 59°02' E 004°44'4 7.9
2017-Oct-13 17:27N 59°06' E 004°43'19 6.5
2017-Oct-13 14:27N 59°26' E 004°44'2 5.3
2017-Oct-13 14:00N 59°28' E 004°45'2 4.7
2017-Oct-13 13:30N 59°31' E 004°46'2 4.2
2017-Oct-13 13:00N 59°33' E 004°47'2 4.0
2017-Oct-13 12:30N 59°35' E 004°47'2 3.8
2017-Oct-13 12:00N 59°36' E 004°47'2 3.5
2017-Oct-13 11:30N 59°38' E 004°47'2 3.6
2017-Oct-13 11:00N 59°40' E 004°48'2 3.9
2017-Oct-13 10:30N 59°42' E 004°48'2 4.5
2017-Oct-13 10:00N 59°44' E 004°49'2 4.7
2017-Oct-13 09:30N 59°46' E 004°50'3 5.0
2017-Oct-13 09:00N 59°49' E 004°51'3 5.3
2017-Oct-13 08:30N 59°52' E 004°52'3 5.6
2017-Oct-13 08:00N 59°54' E 004°53'3 5.6
2017-Oct-13 07:30N 59°57' E 004°54'3 5.7
2017-Oct-13 07:00N 59°60' E 004°55'3 6.1
2017-Oct-13 06:30N 60°03' E 004°56'3 6.1
2017-Oct-13 05:59N 60°06' E 004°56'3 6.2
2017-Oct-13 05:30N 60°09' E 004°60'5 9.4
2017-Oct-13 05:00N 60°10' E 005°09'4 8.6
2017-Oct-13 04:30N 60°14' E 005°09'4 8.0
2017-Oct-13 04:00N 60°18' E 005°08'3 6.2
2017-Oct-13 03:30N 60°21' E 005°10'3 5.6
2017-Oct-13 03:00N 60°24' E 005°13'1 1.1
2017-Oct-13 02:30N 60°24' E 005°14'0 0.0
2017-Oct-13 02:00N 60°24' E 005°14'0 0.0
2017-Oct-13 01:30N 60°24' E 005°14'0 0.0
2017-Oct-13 01:00N 60°24' E 005°14'0 0.0
2017-Oct-13 00:30N 60°24' E 005°14'1 2.7
2017-Oct-13 00:00N 60°23' E 005°12'4 8.8
2017-Oct-12 23:30N 60°25' E 005°03'5 9.4
2017-Oct-12 23:00N 60°29' E 004°59'5 9.6
2017-Oct-12 22:30N 60°34' E 004°55'5 9.4
2017-Oct-12 21:58N 60°38' E 004°51'4 9.3
2017-Oct-12 21:30N 60°42' E 004°47'4 8.1
2017-Oct-12 20:59N 60°45' E 004°41'4 8.1
2017-Oct-12 20:30N 60°48' E 004°35'4 8.0
2017-Oct-12 20:00N 60°51' E 004°29'4 8.0
2017-Oct-12 19:29N 60°55' E 004°27'4 8.2
2017-Oct-12 19:00N 60°58' E 004°25'4 8.6
2017-Oct-12 18:30N 61°03' E 004°25'4 8.3
2017-Oct-12 18:00N 61°07' E 004°25'4 8.6
2017-Oct-12 17:29N 61°11' E 004°26'4 8.7
2017-Oct-12 17:00N 61°15' E 004°27'6 9.1
2017-Oct-12 16:24N 61°21' E 004°26'3 7.9
2017-Oct-12 16:00N 61°24' E 004°26'4 8.4
2017-Oct-12 15:30N 61°28' E 004°27'4 8.9
2017-Oct-12 15:00N 61°33' E 004°28'4 8.6
2017-Oct-12 14:30N 61°37' E 004°29'4 8.5
2017-Oct-12 14:00N 61°41' E 004°31'4 8.0
2017-Oct-12 13:30N 61°45' E 004°35'4 8.5
2017-Oct-12 13:00N 61°49' E 004°38'4 8.4
2017-Oct-12 12:30N 61°52' E 004°42'4 8.1
2017-Oct-12 12:00N 61°56' E 004°45'4 8.4
2017-Oct-12 11:30N 62°00' E 004°48'4 7.7
2017-Oct-12 11:00N 62°04' E 004°51'4 7.9
2017-Oct-12 10:30N 62°07' E 004°55'4 7.9
2017-Oct-12 10:00N 62°11' E 004°59'4 8.2
2017-Oct-12 09:30N 62°14' E 005°04'4 9.0
2017-Oct-12 08:59N 62°18' E 005°10'4 9.0
2017-Oct-12 08:30N 62°21' E 005°15'4 8.8
2017-Oct-12 08:00N 62°25' E 005°20'4 8.5
2017-Oct-12 07:30N 62°29' E 005°26'4 8.8
2017-Oct-12 07:00N 62°32' E 005°31'4 8.9
2017-Oct-12 06:30N 62°36' E 005°36'4 8.8
2017-Oct-12 06:00N 62°39' E 005°42'4 8.0
2017-Oct-12 05:30N 62°42' E 005°48'4 7.5
2017-Oct-12 05:00N 62°45' E 005°53'4 7.8
2017-Oct-12 04:30N 62°49' E 005°58'4 7.4
2017-Oct-12 04:00N 62°51' E 006°03'4 7.4
2017-Oct-12 03:30N 62°54' E 006°09'4 8.0
2017-Oct-12 03:00N 62°57' E 006°15'4 8.4
2017-Oct-12 02:30N 62°59' E 006°22'4 8.7
2017-Oct-12 02:00N 63°02' E 006°29'4 8.9
2017-Oct-12 01:30N 63°05' E 006°36'4 8.7
2017-Oct-12 01:00N 63°09' E 006°43'4 8.2
2017-Oct-12 00:30N 63°12' E 006°49'4 7.8
2017-Oct-12 00:00N 63°15' E 006°54'4 7.4
2017-Oct-11 23:30N 63°17' E 006°60'4 7.3
2017-Oct-11 23:00N 63°20' E 007°06'4 7.3
2017-Oct-11 22:30N 63°23' E 007°11'4 7.4
2017-Oct-11 22:00N 63°25' E 007°17'4 7.6
2017-Oct-11 21:30N 63°28' E 007°22'4 7.9
2017-Oct-11 21:00N 63°32' E 007°28'4 7.6
2017-Oct-11 20:30N 63°35' E 007°32'4 7.2
2017-Oct-11 20:00N 63°38' E 007°36'4 7.1
2017-Oct-11 19:29N 63°41' E 007°39'4 7.3
2017-Oct-11 19:00N 63°45' E 007°42'4 7.2
2017-Oct-11 18:30N 63°48' E 007°45'4 7.3
2017-Oct-11 18:00N 63°51' E 007°47'260 7.8
2017-Oct-10 08:34N 67°46' E 012°17'1 8.4
2017-Oct-10 08:30N 67°47' E 012°18'4 8.4
2017-Oct-10 08:00N 67°50' E 012°24'4 8.1
2017-Oct-10 07:30N 67°53' E 012°31'4 8.3
2017-Oct-10 07:00N 67°57' E 012°36'4 8.1
2017-Oct-10 06:30N 68°01' E 012°40'4 8.1
2017-Oct-10 06:00N 68°04' E 012°45'4 8.6
2017-Oct-10 05:30N 68°08' E 012°52'4 8.8
2017-Oct-10 05:00N 68°12' E 012°59'4 8.5
2017-Oct-10 04:30N 68°15' E 013°06'4 8.2
2017-Oct-10 04:00N 68°18' E 013°12'4 8.1
2017-Oct-10 03:30N 68°22' E 013°18'4 8.2
2017-Oct-10 03:00N 68°25' E 013°24'4 8.2
2017-Oct-10 02:30N 68°28' E 013°31'4 8.1
2017-Oct-10 02:00N 68°32' E 013°37'4 8.0
2017-Oct-10 01:30N 68°35' E 013°44'4 8.2
2017-Oct-10 00:59N 68°38' E 013°50'4 8.1
2017-Oct-10 00:30N 68°41' E 013°58'4 7.9
2017-Oct-09 23:59N 68°44' E 014°04'4 8.1
2017-Oct-09 23:30N 68°48' E 014°10'4 8.0
2017-Oct-09 23:00N 68°51' E 014°17'4 7.6
2017-Oct-09 22:30N 68°54' E 014°24'4 7.7
2017-Oct-09 22:00N 68°57' E 014°31'4 8.2
2017-Oct-09 21:30N 68°60' E 014°38'4 8.2
2017-Oct-09 21:00N 69°03' E 014°46'4 8.0
2017-Oct-09 20:30N 69°06' E 014°53'4 7.8
2017-Oct-09 20:00N 69°09' E 015°00'4 7.6
2017-Oct-09 19:30N 69°12' E 015°08'4 7.4
2017-Oct-09 19:00N 69°14' E 015°15'4 7.7
2017-Oct-09 18:30N 69°16' E 015°24'4 7.8
2017-Oct-09 18:00N 69°19' E 015°33'4 8.0
2017-Oct-09 17:30N 69°22' E 015°41'4 7.9
2017-Oct-09 17:00N 69°24' E 015°50'4 7.2
2017-Oct-09 16:30N 69°26' E 015°58'4 7.8
2017-Oct-09 16:00N 69°29' E 016°07'4 7.9
2017-Oct-09 15:30N 69°31' E 016°15'4 8.0
2017-Oct-09 15:00N 69°34' E 016°25'4 8.2
2017-Oct-09 14:30N 69°36' E 016°34'4 8.3
2017-Oct-09 14:00N 69°39' E 016°43'4 8.1
2017-Oct-09 13:30N 69°41' E 016°53'4 8.7
2017-Oct-09 13:00N 69°44' E 017°02'5 8.9
2017-Oct-09 12:30N 69°47' E 017°12'5 9.3
2017-Oct-09 12:00N 69°50' E 017°22'5 9.0
2017-Oct-09 11:30N 69°53' E 017°32'4 8.6
2017-Oct-09 11:00N 69°56' E 017°39'4 8.1
2017-Oct-09 10:30N 69°60' E 017°47'4 7.9
2017-Oct-09 10:00N 70°03' E 017°54'4 8.1
2017-Oct-09 09:30N 70°06' E 018°03'4 8.1
2017-Oct-09 09:00N 70°08' E 018°12'4 7.9
2017-Oct-09 08:30N 70°11' E 018°21'4 8.2
2017-Oct-09 08:00N 70°13' E 018°30'5 9.2
2017-Oct-09 07:30N 70°16' E 018°41'5 9.6
2017-Oct-09 07:00N 70°19' E 018°53'5 9.4
2017-Oct-09 06:30N 70°21' E 019°06'5 9.4
2017-Oct-09 05:59N 70°22' E 019°19'4 9.0
2017-Oct-09 05:30N 70°23' E 019°32'4 8.4
2017-Oct-09 05:00N 70°22' E 019°44'5 9.2
2017-Oct-09 04:30N 70°19' E 019°53'4 8.6
2017-Oct-09 04:00N 70°15' E 019°59'5 9.4
2017-Oct-09 03:30N 70°11' E 020°05'5 9.0
2017-Oct-09 03:00N 70°07' E 020°14'5 9.2
2017-Oct-09 02:30N 70°11' E 020°23'5 9.3
2017-Oct-09 02:00N 70°14' E 020°33'5 9.6
2017-Oct-09 01:30N 70°17' E 020°44'5 9.6
2017-Oct-09 01:00N 70°19' E 020°57'5 9.6
2017-Oct-09 00:30N 70°21' E 021°09'5 9.9
2017-Oct-09 00:00N 70°23' E 021°23'5 9.7
2017-Oct-08 23:30N 70°24' E 021°37'5 9.9
2017-Oct-08 23:00N 70°23' E 021°51'510.1
2017-Oct-08 22:30N 70°20' E 022°05'510.3
2017-Oct-08 22:00N 70°18' E 022°18'510.2
2017-Oct-08 21:29N 70°16' E 022°32'510.2
2017-Oct-08 21:00N 70°14' E 022°46'5 9.8
2017-Oct-08 20:30N 70°12' E 022°59'510.4
2017-Oct-08 20:00N 70°07' E 023°04'510.5
2017-Oct-08 19:29N 70°02' E 023°09'5 9.1
2017-Oct-08 19:00N 69°58' E 023°13'0 0.1
2017-Oct-08 18:29N 69°58' E 023°13'0 0.0
2017-Oct-08 17:59N 69°58' E 023°13'0 0.0
2017-Oct-08 17:29N 69°58' E 023°13'0 0.0
2017-Oct-08 16:59N 69°58' E 023°13'0 0.0
2017-Oct-08 16:29N 69°58' E 023°13'0 0.0
2017-Oct-08 15:59N 69°58' E 023°13'0 0.0
2017-Oct-08 15:29N 69°58' E 023°13'0 0.0
2017-Oct-08 14:59N 69°58' E 023°13'0 0.0
2017-Oct-08 14:29N 69°58' E 023°13'0 0.0
2017-Oct-08 13:59N 69°58' E 023°13'0 0.0
2017-Oct-08 13:29N 69°58' E 023°13'0 0.0
2017-Oct-08 12:59N 69°58' E 023°13'0 0.0
2017-Oct-08 12:29N 69°58' E 023°13'0 0.0
2017-Oct-08 11:59N 69°58' E 023°13'0 0.0
2017-Oct-08 11:29N 69°58' E 023°13'0 0.0
2017-Oct-08 10:59N 69°58' E 023°13'0 0.0
2017-Oct-08 10:29N 69°58' E 023°13'0 0.0
2017-Oct-08 09:59N 69°58' E 023°13'0 0.0
2017-Oct-08 09:29N 69°58' E 023°13'0 0.0
2017-Oct-08 08:59N 69°58' E 023°13'0 0.0
2017-Oct-08 08:29N 69°58' E 023°13'0 0.0
2017-Oct-08 07:59N 69°58' E 023°13'0 0.0
2017-Oct-08 07:29N 69°58' E 023°13'0 0.0
2017-Oct-08 06:59N 69°58' E 023°13'0 0.0
2017-Oct-08 06:29N 69°58' E 023°13'0 0.0
2017-Oct-08 05:59N 69°58' E 023°13'0 0.0
2017-Oct-08 05:29N 69°58' E 023°13'0 0.0
2017-Oct-08 04:59N 69°58' E 023°13'0 0.0
2017-Oct-08 04:29N 69°58' E 023°13'0 0.0
2017-Oct-08 03:59N 69°58' E 023°13'0 0.0
2017-Oct-08 03:29N 69°58' E 023°13'0 0.0
2017-Oct-08 02:59N 69°58' E 023°13'0 0.0
2017-Oct-08 02:29N 69°58' E 023°13'0 0.0
2017-Oct-08 01:59N 69°58' E 023°13'0 0.0
2017-Oct-08 01:29N 69°58' E 023°13'0 0.0
2017-Oct-08 00:59N 69°58' E 023°13'0 0.0
2017-Oct-08 00:29N 69°58' E 023°13'0 0.0
2017-Oct-08 00:00N 69°58' E 023°13'1 1.7
2017-Oct-07 23:30N 69°58' E 023°12'510.8
2017-Oct-07 23:00N 70°04' E 023°07'611.4
2017-Oct-07 22:30N 70°09' E 023°02'510.6
2017-Oct-07 22:01N 70°13' E 022°53'611.4
2017-Oct-07 21:30N 70°15' E 022°37'611.6
2017-Oct-07 21:00N 70°18' E 022°21'611.3
2017-Oct-07 20:30N 70°20' E 022°06'511.1
2017-Oct-07 20:00N 70°22' E 021°51'510.2
2017-Oct-07 19:30N 70°24' E 021°37'510.2
2017-Oct-07 19:00N 70°23' E 021°22'510.4
2017-Oct-07 18:29N 70°21' E 021°08'510.4
2017-Oct-07 18:00N 70°19' E 020°54'510.4
2017-Oct-07 17:30N 70°16' E 020°41'510.4
2017-Oct-07 17:00N 70°13' E 020°28'510.4
2017-Oct-07 16:30N 70°09' E 020°19'4 7.7
2017-Oct-07 16:00N 70°06' E 020°13'1 1.2
2017-Oct-07 15:30N 70°06' E 020°11'1 2.5
2017-Oct-07 15:00N 70°07' E 020°10'1 1.0
2017-Oct-07 14:30N 70°08' E 020°11'0 0.4
2017-Oct-07 14:00N 70°08' E 020°11'2 4.2
2017-Oct-07 13:29N 70°10' E 020°08'0 0.8
2017-Oct-07 13:00N 70°10' E 020°08'5 9.2
2017-Oct-07 12:30N 70°14' E 020°02'510.6
2017-Oct-07 12:00N 70°19' E 019°54'5 9.9
2017-Oct-07 11:30N 70°22' E 019°43'510.0
2017-Oct-07 11:00N 70°24' E 019°29'5 9.2
2017-Oct-07 10:30N 70°23' E 019°16'510.3
2017-Oct-07 10:00N 70°20' E 019°02'510.2
2017-Oct-07 09:30N 70°18' E 018°49'510.3
2017-Oct-07 09:00N 70°15' E 018°36'510.3
2017-Oct-07 08:30N 70°12' E 018°25'510.2
2017-Oct-07 08:00N 70°08' E 018°14'510.4
2017-Oct-07 07:30N 70°05' E 018°03'5 9.9
2017-Oct-07 07:00N 70°02' E 017°51'5 9.9
2017-Oct-07 06:30N 69°58' E 017°41'510.0
2017-Oct-07 05:59N 69°55' E 017°30'5 9.9
2017-Oct-07 05:30N 69°51' E 017°21'5 9.9
2017-Oct-07 05:00N 69°47' E 017°11'510.1
2017-Oct-07 04:30N 69°44' E 017°01'511.0
2017-Oct-07 04:00N 69°40' E 016°51'510.6
2017-Oct-07 03:30N 69°36' E 016°38'510.5
2017-Oct-07 02:59N 69°33' E 016°26'510.7
2017-Oct-07 02:30N 69°30' E 016°14'611.1
2017-Oct-07 02:00N 69°27' E 016°01'611.7
2017-Oct-07 01:30N 69°24' E 015°47'611.6
2017-Oct-07 01:00N 69°21' E 015°33'612.0
2017-Oct-07 00:29N 69°17' E 015°19'611.6
2017-Oct-06 23:59N 69°14' E 015°05'510.9
2017-Oct-06 23:30N 69°11' E 014°53'510.6
2017-Oct-06 23:00N 69°06' E 014°47'510.8
2017-Oct-06 22:29N 69°01' E 014°42'510.8
2017-Oct-06 22:00N 68°56' E 014°36'510.3
2017-Oct-06 21:30N 68°52' E 014°26'611.1
2017-Oct-06 21:00N 68°49' E 014°14'510.1
2017-Oct-06 20:30N 68°44' E 014°11'510.6
2017-Oct-06 20:00N 68°41' E 013°60'510.5
2017-Oct-06 19:30N 68°36' E 013°56'511.0
2017-Oct-06 19:00N 68°32' E 013°44'510.8
2017-Oct-06 18:30N 68°28' E 013°34'510.3
2017-Oct-06 18:00N 68°24' E 013°29'5 9.1
2017-Oct-06 17:30N 68°20' E 013°22'510.2
2017-Oct-06 17:00N 68°17' E 013°10'5 9.5
2017-Oct-06 16:30N 68°13' E 013°05'5 9.9
2017-Oct-06 16:00N 68°09' E 012°56'510.7
2017-Oct-06 15:30N 68°05' E 012°48'510.4
2017-Oct-06 15:00N 68°00' E 012°41'  

Dump ship's entire track history